sensor_id;sensor_type;location;lat;lon;timestamp;P1;durP1;ratioP1;P2;durP2;ratioP2
28960;SDS011;16068;42.896;20.868;2024-01-10T00:00:54;7.10;;;3.70;;
28960;SDS011;16068;42.896;20.868;2024-01-10T00:03:41;5.50;;;3.15;;
28960;SDS011;16068;42.896;20.868;2024-01-10T00:06:27;7.68;;;3.35;;
28960;SDS011;16068;42.896;20.868;2024-01-10T00:09:13;5.90;;;3.75;;
28960;SDS011;16068;42.896;20.868;2024-01-10T00:12:00;8.98;;;4.50;;
28960;SDS011;16068;42.896;20.868;2024-01-10T00:14:46;6.13;;;3.78;;
28960;SDS011;16068;42.896;20.868;2024-01-10T00:17:32;6.40;;;3.85;;
28960;SDS011;16068;42.896;20.868;2024-01-10T00:20:18;10.07;;;3.80;;
28960;SDS011;16068;42.896;20.868;2024-01-10T00:23:05;7.82;;;3.80;;
28960;SDS011;16068;42.896;20.868;2024-01-10T00:25:52;6.10;;;3.78;;
28960;SDS011;16068;42.896;20.868;2024-01-10T00:28:38;6.82;;;3.78;;
28960;SDS011;16068;42.896;20.868;2024-01-10T00:31:24;7.38;;;3.90;;
28960;SDS011;16068;42.896;20.868;2024-01-10T00:34:10;6.00;;;3.25;;
28960;SDS011;16068;42.896;20.868;2024-01-10T00:36:56;7.18;;;3.72;;
28960;SDS011;16068;42.896;20.868;2024-01-10T00:39:44;6.82;;;3.67;;
28960;SDS011;16068;42.896;20.868;2024-01-10T00:42:30;5.60;;;3.28;;
28960;SDS011;16068;42.896;20.868;2024-01-10T00:45:17;9.68;;;3.97;;
28960;SDS011;16068;42.896;20.868;2024-01-10T00:48:03;5.60;;;3.50;;
28960;SDS011;16068;42.896;20.868;2024-01-10T00:50:49;6.18;;;3.60;;
28960;SDS011;16068;42.896;20.868;2024-01-10T00:53:36;6.57;;;3.70;;
28960;SDS011;16068;42.896;20.868;2024-01-10T00:56:24;6.00;;;3.65;;
28960;SDS011;16068;42.896;20.868;2024-01-10T00:59:10;5.68;;;3.67;;
28960;SDS011;16068;42.896;20.868;2024-01-10T01:01:56;8.73;;;4.35;;
28960;SDS011;16068;42.896;20.868;2024-01-10T01:04:42;6.90;;;4.15;;
28960;SDS011;16068;42.896;20.868;2024-01-10T01:07:28;6.70;;;3.60;;
28960;SDS011;16068;42.896;20.868;2024-01-10T01:10:14;6.88;;;3.88;;
28960;SDS011;16068;42.896;20.868;2024-01-10T01:13:00;6.25;;;3.60;;
28960;SDS011;16068;42.896;20.868;2024-01-10T01:15:46;5.38;;;3.42;;
28960;SDS011;16068;42.896;20.868;2024-01-10T01:18:32;7.57;;;3.90;;
28960;SDS011;16068;42.896;20.868;2024-01-10T01:21:21;7.53;;;4.13;;
28960;SDS011;16068;42.896;20.868;2024-01-10T01:24:07;9.32;;;3.67;;
28960;SDS011;16068;42.896;20.868;2024-01-10T01:26:53;8.70;;;3.40;;
28960;SDS011;16068;42.896;20.868;2024-01-10T01:29:39;8.18;;;3.90;;
28960;SDS011;16068;42.896;20.868;2024-01-10T01:32:25;5.60;;;3.72;;
28960;SDS011;16068;42.896;20.868;2024-01-10T01:35:12;9.23;;;4.30;;
28960;SDS011;16068;42.896;20.868;2024-01-10T01:37:58;6.28;;;3.45;;
28960;SDS011;16068;42.896;20.868;2024-01-10T01:40:44;5.53;;;3.38;;
28960;SDS011;16068;42.896;20.868;2024-01-10T01:43:30;13.68;;;5.85;;
28960;SDS011;16068;42.896;20.868;2024-01-10T01:46:16;6.68;;;3.90;;
28960;SDS011;16068;42.896;20.868;2024-01-10T01:49:02;5.68;;;3.42;;
28960;SDS011;16068;42.896;20.868;2024-01-10T01:51:49;7.60;;;4.07;;
28960;SDS011;16068;42.896;20.868;2024-01-10T01:54:35;7.78;;;3.97;;
28960;SDS011;16068;42.896;20.868;2024-01-10T01:57:21;6.30;;;3.78;;
28960;SDS011;16068;42.896;20.868;2024-01-10T02:00:08;7.03;;;3.75;;
28960;SDS011;16068;42.896;20.868;2024-01-10T02:02:54;10.73;;;3.70;;
28960;SDS011;16068;42.896;20.868;2024-01-10T02:05:41;5.38;;;3.38;;
28960;SDS011;16068;42.896;20.868;2024-01-10T02:08:27;5.68;;;3.65;;
28960;SDS011;16068;42.896;20.868;2024-01-10T02:11:13;6.88;;;3.60;;
28960;SDS011;16068;42.896;20.868;2024-01-10T02:13:59;5.47;;;3.70;;
28960;SDS011;16068;42.896;20.868;2024-01-10T02:16:45;5.65;;;3.42;;
28960;SDS011;16068;42.896;20.868;2024-01-10T02:19:32;5.55;;;3.42;;
28960;SDS011;16068;42.896;20.868;2024-01-10T02:22:20;5.45;;;3.13;;
28960;SDS011;16068;42.896;20.868;2024-01-10T02:25:07;5.15;;;3.17;;
28960;SDS011;16068;42.896;20.868;2024-01-10T02:27:54;4.85;;;2.97;;
28960;SDS011;16068;42.896;20.868;2024-01-10T02:30:40;6.07;;;2.92;;
28960;SDS011;16068;42.896;20.868;2024-01-10T02:33:26;6.25;;;3.72;;
28960;SDS011;16068;42.896;20.868;2024-01-10T02:36:13;5.38;;;3.20;;
28960;SDS011;16068;42.896;20.868;2024-01-10T02:39:00;5.65;;;3.05;;
28960;SDS011;16068;42.896;20.868;2024-01-10T02:41:46;4.57;;;3.20;;
28960;SDS011;16068;42.896;20.868;2024-01-10T02:44:32;7.55;;;3.67;;
28960;SDS011;16068;42.896;20.868;2024-01-10T02:47:18;7.65;;;3.35;;
28960;SDS011;16068;42.896;20.868;2024-01-10T02:50:04;6.03;;;3.35;;
28960;SDS011;16068;42.896;20.868;2024-01-10T02:52:52;6.25;;;3.67;;
28960;SDS011;16068;42.896;20.868;2024-01-10T02:55:39;5.95;;;3.50;;
28960;SDS011;16068;42.896;20.868;2024-01-10T02:58:26;5.68;;;3.30;;
28960;SDS011;16068;42.896;20.868;2024-01-10T03:01:14;6.40;;;3.80;;
28960;SDS011;16068;42.896;20.868;2024-01-10T03:04:01;4.30;;;2.88;;
28960;SDS011;16068;42.896;20.868;2024-01-10T03:06:47;10.68;;;3.00;;
28960;SDS011;16068;42.896;20.868;2024-01-10T03:09:33;7.05;;;3.55;;
28960;SDS011;16068;42.896;20.868;2024-01-10T03:12:19;6.25;;;3.15;;
28960;SDS011;16068;42.896;20.868;2024-01-10T03:15:05;5.53;;;3.53;;
28960;SDS011;16068;42.896;20.868;2024-01-10T03:17:51;6.20;;;3.20;;
28960;SDS011;16068;42.896;20.868;2024-01-10T03:20:38;7.10;;;3.92;;
28960;SDS011;16068;42.896;20.868;2024-01-10T03:23:23;6.85;;;3.40;;
28960;SDS011;16068;42.896;20.868;2024-01-10T03:26:10;5.60;;;3.47;;
28960;SDS011;16068;42.896;20.868;2024-01-10T03:28:56;4.82;;;3.00;;
28960;SDS011;16068;42.896;20.868;2024-01-10T03:31:43;6.82;;;3.42;;
28960;SDS011;16068;42.896;20.868;2024-01-10T03:34:28;6.68;;;3.78;;
28960;SDS011;16068;42.896;20.868;2024-01-10T03:37:15;8.57;;;3.95;;
28960;SDS011;16068;42.896;20.868;2024-01-10T03:40:00;7.22;;;3.70;;
28960;SDS011;16068;42.896;20.868;2024-01-10T03:42:47;6.00;;;3.78;;
28960;SDS011;16068;42.896;20.868;2024-01-10T03:45:32;5.63;;;3.47;;
28960;SDS011;16068;42.896;20.868;2024-01-10T03:48:19;8.20;;;3.85;;
28960;SDS011;16068;42.896;20.868;2024-01-10T03:51:05;6.88;;;4.22;;
28960;SDS011;16068;42.896;20.868;2024-01-10T03:53:51;7.05;;;3.60;;
28960;SDS011;16068;42.896;20.868;2024-01-10T03:56:37;6.97;;;4.22;;
28960;SDS011;16068;42.896;20.868;2024-01-10T03:59:23;9.25;;;3.63;;
28960;SDS011;16068;42.896;20.868;2024-01-10T04:02:10;6.68;;;3.50;;
28960;SDS011;16068;42.896;20.868;2024-01-10T04:04:57;6.07;;;3.60;;
28960;SDS011;16068;42.896;20.868;2024-01-10T04:07:43;6.53;;;3.63;;
28960;SDS011;16068;42.896;20.868;2024-01-10T04:10:29;6.70;;;3.90;;
28960;SDS011;16068;42.896;20.868;2024-01-10T04:13:15;8.57;;;4.30;;
28960;SDS011;16068;42.896;20.868;2024-01-10T04:16:01;5.65;;;3.53;;
28960;SDS011;16068;42.896;20.868;2024-01-10T04:18:47;6.60;;;3.80;;
28960;SDS011;16068;42.896;20.868;2024-01-10T04:21:34;6.70;;;3.72;;
28960;SDS011;16068;42.896;20.868;2024-01-10T04:24:19;6.53;;;3.60;;
28960;SDS011;16068;42.896;20.868;2024-01-10T04:27:05;8.23;;;4.00;;
28960;SDS011;16068;42.896;20.868;2024-01-10T04:29:55;7.40;;;4.10;;
28960;SDS011;16068;42.896;20.868;2024-01-10T04:32:41;7.00;;;3.70;;
28960;SDS011;16068;42.896;20.868;2024-01-10T04:35:27;7.90;;;3.53;;
28960;SDS011;16068;42.896;20.868;2024-01-10T04:38:13;7.15;;;3.97;;
28960;SDS011;16068;42.896;20.868;2024-01-10T04:40:59;8.05;;;4.57;;
28960;SDS011;16068;42.896;20.868;2024-01-10T04:43:45;7.28;;;3.95;;
28960;SDS011;16068;42.896;20.868;2024-01-10T04:46:31;8.05;;;4.25;;
28960;SDS011;16068;42.896;20.868;2024-01-10T04:49:17;9.38;;;4.25;;
28960;SDS011;16068;42.896;20.868;2024-01-10T04:52:03;6.90;;;3.92;;
28960;SDS011;16068;42.896;20.868;2024-01-10T04:54:50;10.68;;;4.95;;
28960;SDS011;16068;42.896;20.868;2024-01-10T04:57:36;9.18;;;4.50;;
28960;SDS011;16068;42.896;20.868;2024-01-10T05:00:23;10.73;;;5.45;;
28960;SDS011;16068;42.896;20.868;2024-01-10T05:03:09;12.60;;;6.57;;
28960;SDS011;16068;42.896;20.868;2024-01-10T05:05:55;17.55;;;7.47;;
28960;SDS011;16068;42.896;20.868;2024-01-10T05:08:41;15.63;;;8.25;;
28960;SDS011;16068;42.896;20.868;2024-01-10T05:11:27;19.00;;;10.10;;
28960;SDS011;16068;42.896;20.868;2024-01-10T05:14:13;26.65;;;11.57;;
28960;SDS011;16068;42.896;20.868;2024-01-10T05:16:59;25.83;;;12.02;;
28960;SDS011;16068;42.896;20.868;2024-01-10T05:19:45;26.85;;;12.32;;
28960;SDS011;16068;42.896;20.868;2024-01-10T05:22:34;23.38;;;11.55;;
28960;SDS011;16068;42.896;20.868;2024-01-10T05:25:20;19.58;;;9.43;;
28960;SDS011;16068;42.896;20.868;2024-01-10T05:28:06;14.68;;;8.05;;
28960;SDS011;16068;42.896;20.868;2024-01-10T05:30:52;15.50;;;8.02;;
28960;SDS011;16068;42.896;20.868;2024-01-10T05:33:39;17.05;;;7.57;;
28960;SDS011;16068;42.896;20.868;2024-01-10T05:36:27;12.23;;;7.00;;
28960;SDS011;16068;42.896;20.868;2024-01-10T05:39:14;14.98;;;6.57;;
28960;SDS011;16068;42.896;20.868;2024-01-10T05:42:01;14.80;;;6.45;;
28960;SDS011;16068;42.896;20.868;2024-01-10T05:44:51;9.68;;;5.97;;
28960;SDS011;16068;42.896;20.868;2024-01-10T05:47:37;25.20;;;7.45;;
28960;SDS011;16068;42.896;20.868;2024-01-10T05:50:24;11.82;;;7.05;;
28960;SDS011;16068;42.896;20.868;2024-01-10T05:53:10;15.07;;;7.45;;
28960;SDS011;16068;42.896;20.868;2024-01-10T05:55:59;13.85;;;6.78;;
28960;SDS011;16068;42.896;20.868;2024-01-10T05:58:46;17.20;;;8.00;;
28960;SDS011;16068;42.896;20.868;2024-01-10T06:01:33;17.63;;;8.85;;
28960;SDS011;16068;42.896;20.868;2024-01-10T06:04:19;14.55;;;8.18;;
28960;SDS011;16068;42.896;20.868;2024-01-10T06:07:05;17.98;;;8.52;;
28960;SDS011;16068;42.896;20.868;2024-01-10T06:09:51;24.85;;;10.70;;
28960;SDS011;16068;42.896;20.868;2024-01-10T06:12:39;40.63;;;16.63;;
28960;SDS011;16068;42.896;20.868;2024-01-10T06:15:25;36.95;;;15.27;;
28960;SDS011;16068;42.896;20.868;2024-01-10T06:18:11;33.20;;;14.65;;
28960;SDS011;16068;42.896;20.868;2024-01-10T06:20:58;29.73;;;13.93;;
28960;SDS011;16068;42.896;20.868;2024-01-10T06:23:44;37.95;;;14.10;;
28960;SDS011;16068;42.896;20.868;2024-01-10T06:26:32;24.35;;;12.10;;
28960;SDS011;16068;42.896;20.868;2024-01-10T06:29:18;23.02;;;9.23;;
28960;SDS011;16068;42.896;20.868;2024-01-10T06:32:05;27.15;;;13.52;;
28960;SDS011;16068;42.896;20.868;2024-01-10T06:34:52;35.20;;;15.10;;
28960;SDS011;16068;42.896;20.868;2024-01-10T06:37:39;29.95;;;13.30;;
28960;SDS011;16068;42.896;20.868;2024-01-10T06:40:26;24.40;;;10.13;;
28960;SDS011;16068;42.896;20.868;2024-01-10T06:43:12;18.23;;;9.68;;
28960;SDS011;16068;42.896;20.868;2024-01-10T06:45:58;18.40;;;9.32;;
28960;SDS011;16068;42.896;20.868;2024-01-10T06:48:44;16.77;;;8.30;;
28960;SDS011;16068;42.896;20.868;2024-01-10T06:51:31;21.83;;;6.57;;
28960;SDS011;16068;42.896;20.868;2024-01-10T06:54:18;14.00;;;6.47;;
28960;SDS011;16068;42.896;20.868;2024-01-10T06:57:04;15.23;;;6.15;;
28960;SDS011;16068;42.896;20.868;2024-01-10T06:59:54;12.30;;;6.53;;
28960;SDS011;16068;42.896;20.868;2024-01-10T07:02:40;15.13;;;6.80;;
28960;SDS011;16068;42.896;20.868;2024-01-10T07:05:26;11.48;;;5.32;;
28960;SDS011;16068;42.896;20.868;2024-01-10T07:08:14;9.40;;;5.03;;
28960;SDS011;16068;42.896;20.868;2024-01-10T07:11:02;8.05;;;4.72;;
28960;SDS011;16068;42.896;20.868;2024-01-10T07:13:48;13.07;;;5.07;;
28960;SDS011;16068;42.896;20.868;2024-01-10T07:16:34;17.50;;;5.82;;
28960;SDS011;16068;42.896;20.868;2024-01-10T07:19:22;11.25;;;5.43;;
28960;SDS011;16068;42.896;20.868;2024-01-10T07:22:09;12.70;;;5.88;;
28960;SDS011;16068;42.896;20.868;2024-01-10T07:24:56;16.45;;;5.80;;
28960;SDS011;16068;42.896;20.868;2024-01-10T07:27:45;14.40;;;7.80;;
28960;SDS011;16068;42.896;20.868;2024-01-10T07:30:31;15.50;;;7.93;;
28960;SDS011;16068;42.896;20.868;2024-01-10T07:33:18;20.73;;;10.02;;
28960;SDS011;16068;42.896;20.868;2024-01-10T07:36:06;18.73;;;9.65;;
28960;SDS011;16068;42.896;20.868;2024-01-10T07:38:52;21.23;;;11.10;;
28960;SDS011;16068;42.896;20.868;2024-01-10T07:41:40;20.70;;;11.05;;
28960;SDS011;16068;42.896;20.868;2024-01-10T07:44:26;20.38;;;9.40;;
28960;SDS011;16068;42.896;20.868;2024-01-10T07:47:12;19.05;;;7.57;;
28960;SDS011;16068;42.896;20.868;2024-01-10T07:49:58;16.50;;;7.78;;
28960;SDS011;16068;42.896;20.868;2024-01-10T07:52:44;18.60;;;9.30;;
28960;SDS011;16068;42.896;20.868;2024-01-10T07:55:31;15.00;;;9.30;;
28960;SDS011;16068;42.896;20.868;2024-01-10T07:58:17;23.45;;;10.40;;
28960;SDS011;16068;42.896;20.868;2024-01-10T08:01:03;22.50;;;11.10;;
28960;SDS011;16068;42.896;20.868;2024-01-10T08:03:52;17.30;;;10.55;;
28960;SDS011;16068;42.896;20.868;2024-01-10T08:06:38;26.67;;;12.30;;
28960;SDS011;16068;42.896;20.868;2024-01-10T08:09:24;23.08;;;11.65;;
28960;SDS011;16068;42.896;20.868;2024-01-10T08:12:10;22.85;;;10.80;;
28960;SDS011;16068;42.896;20.868;2024-01-10T08:14:57;26.13;;;11.95;;
28960;SDS011;16068;42.896;20.868;2024-01-10T08:17:43;24.02;;;11.38;;
28960;SDS011;16068;42.896;20.868;2024-01-10T08:20:30;29.60;;;11.20;;
28960;SDS011;16068;42.896;20.868;2024-01-10T08:23:17;18.63;;;10.63;;
28960;SDS011;16068;42.896;20.868;2024-01-10T08:26:06;20.23;;;11.57;;
28960;SDS011;16068;42.896;20.868;2024-01-10T08:28:58;20.90;;;10.57;;
28960;SDS011;16068;42.896;20.868;2024-01-10T08:31:44;22.90;;;11.77;;
28960;SDS011;16068;42.896;20.868;2024-01-10T08:34:31;21.45;;;11.18;;
28960;SDS011;16068;42.896;20.868;2024-01-10T08:37:17;25.55;;;11.85;;
28960;SDS011;16068;42.896;20.868;2024-01-10T08:40:03;24.25;;;11.27;;
28960;SDS011;16068;42.896;20.868;2024-01-10T08:42:55;36.38;;;12.32;;
28960;SDS011;16068;42.896;20.868;2024-01-10T08:45:41;22.92;;;11.68;;
28960;SDS011;16068;42.896;20.868;2024-01-10T08:48:27;16.77;;;9.85;;
28960;SDS011;16068;42.896;20.868;2024-01-10T08:51:13;17.73;;;10.10;;
28960;SDS011;16068;42.896;20.868;2024-01-10T08:54:02;16.13;;;9.60;;
28960;SDS011;16068;42.896;20.868;2024-01-10T08:56:49;18.67;;;9.60;;
28960;SDS011;16068;42.896;20.868;2024-01-10T08:59:35;15.07;;;8.68;;
28960;SDS011;16068;42.896;20.868;2024-01-10T09:02:21;31.95;;;11.25;;
28960;SDS011;16068;42.896;20.868;2024-01-10T09:05:09;32.58;;;10.55;;
28960;SDS011;16068;42.896;20.868;2024-01-10T09:07:58;18.88;;;10.77;;
28960;SDS011;16068;42.896;20.868;2024-01-10T09:10:44;32.15;;;10.23;;
28960;SDS011;16068;42.896;20.868;2024-01-10T09:13:32;17.17;;;9.30;;
28960;SDS011;16068;42.896;20.868;2024-01-10T09:16:19;29.42;;;13.75;;
28960;SDS011;16068;42.896;20.868;2024-01-10T09:19:05;73.03;;;34.00;;
28960;SDS011;16068;42.896;20.868;2024-01-10T09:21:55;24.75;;;11.32;;
28960;SDS011;16068;42.896;20.868;2024-01-10T09:24:43;33.30;;;13.90;;
28960;SDS011;16068;42.896;20.868;2024-01-10T09:27:31;29.95;;;16.42;;
28960;SDS011;16068;42.896;20.868;2024-01-10T09:30:19;34.38;;;13.70;;
28960;SDS011;16068;42.896;20.868;2024-01-10T09:33:06;60.22;;;24.40;;
28960;SDS011;16068;42.896;20.868;2024-01-10T09:35:52;31.73;;;15.60;;
28960;SDS011;16068;42.896;20.868;2024-01-10T09:38:38;42.78;;;18.50;;
28960;SDS011;16068;42.896;20.868;2024-01-10T09:41:24;38.00;;;16.48;;
28960;SDS011;16068;42.896;20.868;2024-01-10T10:03:17;31.05;;;13.95;;
28960;SDS011;16068;42.896;20.868;2024-01-10T10:06:04;24.10;;;12.02;;
28960;SDS011;16068;42.896;20.868;2024-01-10T10:08:50;25.35;;;13.75;;
28960;SDS011;16068;42.896;20.868;2024-01-10T10:11:36;28.52;;;14.52;;
28960;SDS011;16068;42.896;20.868;2024-01-10T10:14:23;18.35;;;10.40;;
28960;SDS011;16068;42.896;20.868;2024-01-10T10:17:18;27.67;;;13.88;;
28960;SDS011;16068;42.896;20.868;2024-01-10T10:20:04;23.13;;;9.25;;
28960;SDS011;16068;42.896;20.868;2024-01-10T10:25:45;34.25;;;10.98;;
28960;SDS011;16068;42.896;20.868;2024-01-10T10:28:33;16.70;;;9.85;;
28960;SDS011;16068;42.896;20.868;2024-01-10T10:31:21;28.23;;;9.50;;
28960;SDS011;16068;42.896;20.868;2024-01-10T10:34:08;16.95;;;8.88;;
28960;SDS011;16068;42.896;20.868;2024-01-10T10:36:55;14.02;;;8.27;;
28960;SDS011;16068;42.896;20.868;2024-01-10T10:39:42;16.63;;;9.82;;
28960;SDS011;16068;42.896;20.868;2024-01-10T10:42:28;18.15;;;9.38;;
28960;SDS011;16068;42.896;20.868;2024-01-10T10:45:18;18.90;;;10.50;;
28960;SDS011;16068;42.896;20.868;2024-01-10T10:48:04;23.30;;;12.50;;
28960;SDS011;16068;42.896;20.868;2024-01-10T10:51:04;33.42;;;15.05;;
28960;SDS011;16068;42.896;20.868;2024-01-10T10:53:55;26.23;;;11.85;;
28960;SDS011;16068;42.896;20.868;2024-01-10T10:56:42;23.95;;;11.30;;
28960;SDS011;16068;42.896;20.868;2024-01-10T10:59:29;23.00;;;11.38;;
28960;SDS011;16068;42.896;20.868;2024-01-10T11:02:16;21.25;;;11.23;;
28960;SDS011;16068;42.896;20.868;2024-01-10T11:05:16;21.10;;;11.18;;
28960;SDS011;16068;42.896;20.868;2024-01-10T11:08:04;22.58;;;13.35;;
28960;SDS011;16068;42.896;20.868;2024-01-10T11:10:51;22.45;;;11.30;;
28960;SDS011;16068;42.896;20.868;2024-01-10T11:25:43;32.28;;;13.52;;
28960;SDS011;16068;42.896;20.868;2024-01-10T11:28:32;35.13;;;16.83;;
28960;SDS011;16068;42.896;20.868;2024-01-10T11:31:30;22.45;;;11.23;;
28960;SDS011;16068;42.896;20.868;2024-01-10T11:34:22;26.73;;;12.98;;
28960;SDS011;16068;42.896;20.868;2024-01-10T11:37:11;29.35;;;11.63;;
28960;SDS011;16068;42.896;20.868;2024-01-10T11:39:58;16.95;;;10.07;;
28960;SDS011;16068;42.896;20.868;2024-01-10T11:42:45;22.67;;;10.52;;
28960;SDS011;16068;42.896;20.868;2024-01-10T11:48:26;18.98;;;10.18;;
28960;SDS011;16068;42.896;20.868;2024-01-10T11:51:14;20.52;;;10.30;;
28960;SDS011;16068;42.896;20.868;2024-01-10T11:54:00;21.00;;;10.45;;
28960;SDS011;16068;42.896;20.868;2024-01-10T11:56:46;13.73;;;8.88;;
28960;SDS011;16068;42.896;20.868;2024-01-10T11:59:32;28.58;;;9.85;;
28960;SDS011;16068;42.896;20.868;2024-01-10T12:02:20;14.43;;;8.95;;
28960;SDS011;16068;42.896;20.868;2024-01-10T12:05:08;16.13;;;9.27;;
28960;SDS011;16068;42.896;20.868;2024-01-10T12:07:54;14.80;;;7.90;;
28960;SDS011;16068;42.896;20.868;2024-01-10T12:10:41;13.23;;;7.88;;
28960;SDS011;16068;42.896;20.868;2024-01-10T12:13:27;18.92;;;10.93;;
28960;SDS011;16068;42.896;20.868;2024-01-10T12:16:13;23.15;;;11.05;;
28960;SDS011;16068;42.896;20.868;2024-01-10T12:18:59;23.55;;;11.57;;
28960;SDS011;16068;42.896;20.868;2024-01-10T12:21:45;26.15;;;15.02;;
28960;SDS011;16068;42.896;20.868;2024-01-10T12:24:33;33.78;;;12.45;;
28960;SDS011;16068;42.896;20.868;2024-01-10T12:27:19;20.00;;;10.80;;
28960;SDS011;16068;42.896;20.868;2024-01-10T12:30:08;21.92;;;13.05;;
28960;SDS011;16068;42.896;20.868;2024-01-10T12:32:54;21.10;;;9.90;;
28960;SDS011;16068;42.896;20.868;2024-01-10T12:35:41;19.83;;;10.10;;
28960;SDS011;16068;42.896;20.868;2024-01-10T12:38:28;16.42;;;9.32;;
28960;SDS011;16068;42.896;20.868;2024-01-10T12:41:15;26.23;;;12.30;;
28960;SDS011;16068;42.896;20.868;2024-01-10T12:44:01;33.38;;;14.40;;
28960;SDS011;16068;42.896;20.868;2024-01-10T12:46:52;29.00;;;16.23;;
28960;SDS011;16068;42.896;20.868;2024-01-10T12:49:38;21.90;;;11.68;;
28960;SDS011;16068;42.896;20.868;2024-01-10T12:52:27;30.75;;;14.27;;
28960;SDS011;16068;42.896;20.868;2024-01-10T12:55:14;26.33;;;12.50;;
28960;SDS011;16068;42.896;20.868;2024-01-10T12:58:01;21.88;;;12.13;;
28960;SDS011;16068;42.896;20.868;2024-01-10T13:00:52;27.15;;;12.27;;
28960;SDS011;16068;42.896;20.868;2024-01-10T13:03:38;17.77;;;10.27;;
28960;SDS011;16068;42.896;20.868;2024-01-10T13:06:25;34.00;;;15.98;;
28960;SDS011;16068;42.896;20.868;2024-01-10T13:09:13;22.05;;;9.70;;
28960;SDS011;16068;42.896;20.868;2024-01-10T13:11:58;25.33;;;11.18;;
28960;SDS011;16068;42.896;20.868;2024-01-10T13:14:46;28.65;;;12.85;;
28960;SDS011;16068;42.896;20.868;2024-01-10T13:17:32;19.65;;;10.50;;
28960;SDS011;16068;42.896;20.868;2024-01-10T13:20:18;25.30;;;11.55;;
28960;SDS011;16068;42.896;20.868;2024-01-10T13:23:04;26.13;;;11.18;;
28960;SDS011;16068;42.896;20.868;2024-01-10T13:25:51;21.67;;;11.18;;
28960;SDS011;16068;42.896;20.868;2024-01-10T13:28:37;64.57;;;32.50;;
28960;SDS011;16068;42.896;20.868;2024-01-10T13:31:23;28.67;;;11.80;;
28960;SDS011;16068;42.896;20.868;2024-01-10T13:34:09;28.08;;;15.15;;
28960;SDS011;16068;42.896;20.868;2024-01-10T13:37:00;52.70;;;19.90;;
28960;SDS011;16068;42.896;20.868;2024-01-10T13:39:47;34.92;;;13.25;;
28960;SDS011;16068;42.896;20.868;2024-01-10T13:42:33;38.80;;;13.98;;
28960;SDS011;16068;42.896;20.868;2024-01-10T13:45:19;23.10;;;10.80;;
28960;SDS011;16068;42.896;20.868;2024-01-10T13:48:06;33.35;;;10.13;;
28960;SDS011;16068;42.896;20.868;2024-01-10T13:50:52;33.67;;;10.95;;
28960;SDS011;16068;42.896;20.868;2024-01-10T13:53:42;33.22;;;15.45;;
28960;SDS011;16068;42.896;20.868;2024-01-10T13:56:28;31.08;;;14.25;;
28960;SDS011;16068;42.896;20.868;2024-01-10T13:59:15;22.45;;;11.25;;
28960;SDS011;16068;42.896;20.868;2024-01-10T14:02:01;20.73;;;8.15;;
28960;SDS011;16068;42.896;20.868;2024-01-10T14:04:48;20.05;;;10.23;;
28960;SDS011;16068;42.896;20.868;2024-01-10T14:07:34;20.80;;;8.88;;
28960;SDS011;16068;42.896;20.868;2024-01-10T14:10:22;23.63;;;8.80;;
28960;SDS011;16068;42.896;20.868;2024-01-10T14:13:08;25.00;;;9.38;;
28960;SDS011;16068;42.896;20.868;2024-01-10T14:15:53;19.77;;;9.30;;
28960;SDS011;16068;42.896;20.868;2024-01-10T14:18:39;20.02;;;8.43;;
28960;SDS011;16068;42.896;20.868;2024-01-10T14:21:26;16.10;;;7.63;;
28960;SDS011;16068;42.896;20.868;2024-01-10T14:24:12;48.50;;;20.95;;
28960;SDS011;16068;42.896;20.868;2024-01-10T14:26:58;25.33;;;10.80;;
28960;SDS011;16068;42.896;20.868;2024-01-10T14:29:44;26.27;;;10.20;;
28960;SDS011;16068;42.896;20.868;2024-01-10T14:32:30;21.67;;;8.93;;
28960;SDS011;16068;42.896;20.868;2024-01-10T14:35:21;25.50;;;11.30;;
28960;SDS011;16068;42.896;20.868;2024-01-10T14:38:07;19.02;;;9.57;;
28960;SDS011;16068;42.896;20.868;2024-01-10T14:40:54;27.23;;;11.30;;
28960;SDS011;16068;42.896;20.868;2024-01-10T14:43:40;24.77;;;11.23;;
28960;SDS011;16068;42.896;20.868;2024-01-10T14:46:26;26.48;;;11.02;;
28960;SDS011;16068;42.896;20.868;2024-01-10T14:49:14;19.80;;;9.35;;
28960;SDS011;16068;42.896;20.868;2024-01-10T14:52:02;24.85;;;12.43;;
28960;SDS011;16068;42.896;20.868;2024-01-10T14:54:48;25.02;;;9.63;;
28960;SDS011;16068;42.896;20.868;2024-01-10T14:57:34;17.27;;;8.40;;
28960;SDS011;16068;42.896;20.868;2024-01-10T15:00:21;20.95;;;8.95;;
28960;SDS011;16068;42.896;20.868;2024-01-10T15:03:07;29.17;;;11.68;;
28960;SDS011;16068;42.896;20.868;2024-01-10T15:06:08;22.20;;;8.80;;
28960;SDS011;16068;42.896;20.868;2024-01-10T15:08:54;25.35;;;11.38;;
28960;SDS011;16068;42.896;20.868;2024-01-10T15:11:41;22.45;;;10.52;;
28960;SDS011;16068;42.896;20.868;2024-01-10T15:14:27;27.55;;;10.43;;
28960;SDS011;16068;42.896;20.868;2024-01-10T15:17:13;24.25;;;10.60;;
28960;SDS011;16068;42.896;20.868;2024-01-10T15:19:59;23.50;;;10.57;;
28960;SDS011;16068;42.896;20.868;2024-01-10T15:22:45;31.40;;;12.68;;
28960;SDS011;16068;42.896;20.868;2024-01-10T15:25:32;30.88;;;12.23;;
28960;SDS011;16068;42.896;20.868;2024-01-10T15:28:18;23.30;;;12.10;;
28960;SDS011;16068;42.896;20.868;2024-01-10T15:31:04;18.02;;;9.52;;
28960;SDS011;16068;42.896;20.868;2024-01-10T15:33:51;23.27;;;10.63;;
28960;SDS011;16068;42.896;20.868;2024-01-10T15:36:41;21.63;;;10.90;;
28960;SDS011;16068;42.896;20.868;2024-01-10T15:39:27;23.00;;;11.07;;
28960;SDS011;16068;42.896;20.868;2024-01-10T15:42:14;33.67;;;12.93;;
28960;SDS011;16068;42.896;20.868;2024-01-10T15:45:01;33.83;;;15.30;;
28960;SDS011;16068;42.896;20.868;2024-01-10T15:47:47;37.63;;;15.27;;
28960;SDS011;16068;42.896;20.868;2024-01-10T15:50:34;25.02;;;13.10;;
28960;SDS011;16068;42.896;20.868;2024-01-10T15:53:22;38.40;;;14.48;;
28960;SDS011;16068;42.896;20.868;2024-01-10T15:56:08;55.45;;;18.58;;
28960;SDS011;16068;42.896;20.868;2024-01-10T15:58:54;50.72;;;19.80;;
28960;SDS011;16068;42.896;20.868;2024-01-10T16:01:44;48.67;;;22.52;;
28960;SDS011;16068;42.896;20.868;2024-01-10T16:04:30;38.08;;;16.98;;
28960;SDS011;16068;42.896;20.868;2024-01-10T16:07:16;36.53;;;15.85;;
28960;SDS011;16068;42.896;20.868;2024-01-10T16:10:02;32.40;;;14.52;;
28960;SDS011;16068;42.896;20.868;2024-01-10T16:12:49;28.83;;;12.25;;
28960;SDS011;16068;42.896;20.868;2024-01-10T16:15:35;33.70;;;13.20;;
28960;SDS011;16068;42.896;20.868;2024-01-10T16:18:22;29.42;;;13.27;;
28960;SDS011;16068;42.896;20.868;2024-01-10T16:21:08;30.33;;;12.98;;
28960;SDS011;16068;42.896;20.868;2024-01-10T16:23:55;32.20;;;12.00;;
28960;SDS011;16068;42.896;20.868;2024-01-10T16:26:41;26.38;;;12.07;;
28960;SDS011;16068;42.896;20.868;2024-01-10T16:29:42;25.60;;;12.02;;
28960;SDS011;16068;42.896;20.868;2024-01-10T16:35:45;37.88;;;11.20;;
28960;SDS011;16068;42.896;20.868;2024-01-10T16:39:10;24.70;;;10.88;;
28960;SDS011;16068;42.896;20.868;2024-01-10T16:41:56;26.58;;;11.60;;
28960;SDS011;16068;42.896;20.868;2024-01-10T16:44:44;21.83;;;11.02;;
28960;SDS011;16068;42.896;20.868;2024-01-10T16:47:30;24.90;;;10.02;;
28960;SDS011;16068;42.896;20.868;2024-01-10T16:50:19;27.13;;;11.35;;
28960;SDS011;16068;42.896;20.868;2024-01-10T16:53:05;24.40;;;11.10;;